createdAt,value
2023-02-09T00:01:27.898Z,84.10
2023-02-09T00:03:56.088Z,82.10
2023-02-09T00:06:24.148Z,81.20
2023-02-09T00:08:52.186Z,82.90
2023-02-09T00:11:46.640Z,94.00
2023-02-09T00:14:16.116Z,97.20
2023-02-09T00:16:45.950Z,90.80
2023-02-09T00:19:14.287Z,85.70
2023-02-09T00:21:42.208Z,84.60
2023-02-09T00:24:13.194Z,82.10
2023-02-09T00:26:41.577Z,86.70
2023-02-09T00:29:10.047Z,74.00
2023-02-09T00:31:38.046Z,74.90
2023-02-09T00:34:06.540Z,73.80
2023-02-09T00:36:34.508Z,75.60
2023-02-09T00:39:02.825Z,77.00
2023-02-09T00:41:51.077Z,75.00
2023-02-09T00:44:19.293Z,69.90
2023-02-09T00:46:52.235Z,68.60
2023-02-09T00:49:20.584Z,71.20
2023-02-09T00:51:48.525Z,88.70
2023-02-09T00:54:17.137Z,85.90
2023-02-09T00:56:46.531Z,85.90
2023-02-09T00:59:14.504Z,81.80
2023-02-09T01:01:42.805Z,72.10
2023-02-09T01:04:10.845Z,70.30
2023-02-09T01:06:38.651Z,67.30
2023-02-09T01:09:06.766Z,71.30
2023-02-09T01:11:34.736Z,67.20
2023-02-09T01:14:04.417Z,64.00
2023-02-09T01:16:32.713Z,64.90
2023-02-09T01:19:01.823Z,65.80
2023-02-09T01:21:31.062Z,67.80
2023-02-09T01:23:59.561Z,73.70
2023-02-09T01:26:27.744Z,76.00
2023-02-09T01:28:55.652Z,74.50
2023-02-09T01:31:28.723Z,73.80
2023-02-09T01:33:58.216Z,64.20
2023-02-09T01:36:29.401Z,69.00
2023-02-09T01:38:58.608Z,64.10
2023-02-09T01:41:26.969Z,62.40
2023-02-09T01:44:01.048Z,62.20
2023-02-09T01:46:30.997Z,54.80
2023-02-09T01:49:27.050Z,58.50
2023-02-09T01:52:01.343Z,55.30
2023-02-09T01:54:37.873Z,59.00
2023-02-09T01:57:08.240Z,55.30
2023-02-09T01:59:36.776Z,58.30
2023-02-09T02:02:04.924Z,55.10
2023-02-09T02:04:33.870Z,58.40
2023-02-09T02:07:07.009Z,58.30
2023-02-09T02:09:35.109Z,57.20
2023-02-09T02:12:06.636Z,60.10
2023-02-09T02:14:37.263Z,62.90
2023-02-09T02:17:07.866Z,58.00
2023-02-09T02:19:57.645Z,57.20
2023-02-09T02:22:38.295Z,59.80
2023-02-09T02:25:29.953Z,60.60
2023-02-09T02:28:11.255Z,62.80
2023-02-09T02:30:51.531Z,56.50
2023-02-09T02:33:48.710Z,55.30
2023-02-09T02:36:57.539Z,56.30
2023-02-09T02:40:03.367Z,53.80
2023-02-09T02:42:55.811Z,53.20
2023-02-09T02:45:48.794Z,59.20
2023-02-09T02:48:27.575Z,56.00
2023-02-09T02:51:07.253Z,58.60
2023-02-09T02:53:36.245Z,57.10
2023-02-09T02:56:16.503Z,58.60
2023-02-09T02:58:44.964Z,59.60
2023-02-09T03:01:14.933Z,58.80
2023-02-09T03:03:43.384Z,63.80
2023-02-09T03:06:11.396Z,62.60
2023-02-09T03:08:55.811Z,62.20
2023-02-09T03:11:25.169Z,62.00
2023-02-09T03:14:06.172Z,57.10
2023-02-09T03:16:40.311Z,55.40
2023-02-09T03:19:18.514Z,53.70
2023-02-09T03:21:56.950Z,56.50
2023-02-09T03:24:42.302Z,60.70
2023-02-09T03:27:23.512Z,57.20
2023-02-09T03:29:53.994Z,64.70
2023-02-09T03:32:22.030Z,68.30
2023-02-09T03:34:49.998Z,68.40
2023-02-09T03:37:18.016Z,65.00
2023-02-09T03:39:46.038Z,58.00
2023-02-09T03:42:14.282Z,61.30
2023-02-09T03:44:42.689Z,56.60
2023-02-09T03:47:10.792Z,58.20
2023-02-09T03:49:40.283Z,62.10
2023-02-09T03:52:10.991Z,64.90
2023-02-09T03:54:39.702Z,75.30
2023-02-09T03:57:07.505Z,70.80
2023-02-09T03:59:36.805Z,68.00
2023-02-09T04:02:06.534Z,68.60
2023-02-09T04:04:34.558Z,66.80
2023-02-09T04:07:02.876Z,66.70
2023-02-09T04:09:32.630Z,69.70
2023-02-09T04:12:00.574Z,57.80
2023-02-09T04:14:29.736Z,53.40
2023-02-09T04:16:57.615Z,51.30
2023-02-09T04:19:26.195Z,51.00
2023-02-09T04:21:54.972Z,53.30
2023-02-09T04:24:29.191Z,53.30
2023-02-09T04:26:57.812Z,55.40
2023-02-09T04:29:26.154Z,53.40
2023-02-09T04:31:54.205Z,55.30
2023-02-09T04:34:24.258Z,54.30
2023-02-09T04:36:52.082Z,54.20
2023-02-09T04:39:19.976Z,50.70
2023-02-09T04:41:48.045Z,55.80
2023-02-09T04:44:15.926Z,52.70
2023-02-09T04:46:45.681Z,51.00
2023-02-09T04:49:14.150Z,52.90
2023-02-09T04:51:43.738Z,52.90
2023-02-09T04:54:12.176Z,48.70
2023-02-09T04:56:43.887Z,46.80
2023-02-09T04:59:30.834Z,48.60
2023-02-09T05:01:59.323Z,49.00
2023-02-09T05:04:27.351Z,47.90
2023-02-09T05:06:55.183Z,46.80
2023-02-09T05:09:23.160Z,55.20
2023-02-09T05:11:55.105Z,50.80
2023-02-09T05:14:22.932Z,51.30
2023-02-09T05:16:51.013Z,46.80
2023-02-09T05:19:19.080Z,48.00
2023-02-09T05:21:47.099Z,45.10
2023-02-09T05:24:15.346Z,46.00
2023-02-09T05:26:43.176Z,44.70
2023-02-09T05:29:11.109Z,44.40
2023-02-09T05:31:39.405Z,41.90
2023-02-09T05:34:07.459Z,45.50
2023-02-09T05:36:35.961Z,46.70
2023-02-09T05:39:04.412Z,47.50
2023-02-09T05:41:51.166Z,45.80
2023-02-09T05:44:19.122Z,44.50
2023-02-09T05:46:46.961Z,41.40
2023-02-09T05:49:15.654Z,40.80
2023-02-09T05:51:43.771Z,40.60
2023-02-09T05:54:11.638Z,42.80
2023-02-09T05:56:40.826Z,47.00
2023-02-09T05:59:08.642Z,40.80
2023-02-09T06:01:37.223Z,40.60
2023-02-09T06:04:05.628Z,42.10
2023-02-09T06:06:33.823Z,41.80
2023-02-09T06:09:01.915Z,43.80
2023-02-09T06:11:29.915Z,48.90
2023-02-09T06:13:57.900Z,48.80
2023-02-09T06:16:25.771Z,49.50
2023-02-09T06:18:53.825Z,49.70
2023-02-09T06:21:21.980Z,46.70
2023-02-09T06:23:51.360Z,51.50
2023-02-09T06:26:19.445Z,53.80
2023-02-09T06:28:47.504Z,52.50
2023-02-09T06:31:15.719Z,53.50
2023-02-09T06:33:43.760Z,55.40
2023-02-09T06:36:13.424Z,59.50
2023-02-09T06:38:41.419Z,54.70
2023-02-09T06:41:09.343Z,56.90
2023-02-09T06:43:37.424Z,55.80
2023-02-09T06:46:07.201Z,47.70
2023-02-09T06:48:36.874Z,41.70
2023-02-09T06:51:09.280Z,42.10
2023-02-09T06:53:38.070Z,44.40
2023-02-09T06:56:06.845Z,41.80
2023-02-09T06:58:36.900Z,46.10
2023-02-09T07:01:06.444Z,50.80
2023-02-09T07:03:34.705Z,49.00
2023-02-09T07:06:04.402Z,46.10
2023-02-09T07:08:32.983Z,56.80
2023-02-09T07:11:04.825Z,55.10
2023-02-09T07:13:32.961Z,57.40
2023-02-09T07:16:06.230Z,61.40
2023-02-09T07:18:35.558Z,64.40
2023-02-09T07:21:05.587Z,62.30
2023-02-09T07:23:34.061Z,59.60
2023-02-09T07:26:06.621Z,55.50
2023-02-09T07:28:39.321Z,54.60
2023-02-09T07:31:11.589Z,56.40
2023-02-09T07:33:40.109Z,52.90
2023-02-09T07:36:09.767Z,49.00
2023-02-09T07:38:38.735Z,42.10
2023-02-09T07:41:07.637Z,36.70
2023-02-09T07:43:35.998Z,36.40
2023-02-09T07:46:06.983Z,35.20
2023-02-09T07:48:35.191Z,42.90
2023-02-09T07:51:03.801Z,45.70
2023-02-09T07:53:31.725Z,50.30
2023-02-09T07:55:59.932Z,44.30
2023-02-09T07:58:27.814Z,51.70
2023-02-09T08:00:55.888Z,46.30
2023-02-09T08:03:23.743Z,45.40
2023-02-09T08:06:02.982Z,43.20
2023-02-09T08:08:30.952Z,42.00
2023-02-09T08:11:00.665Z,43.40
2023-02-09T08:13:29.575Z,44.70
2023-02-09T08:16:01.783Z,48.10
2023-02-09T08:18:34.129Z,42.80
2023-02-09T08:21:08.179Z,49.70
2023-02-09T08:23:37.552Z,44.70
2023-02-09T08:26:08.490Z,56.90
2023-02-09T08:28:44.136Z,56.90
2023-02-09T08:31:13.858Z,64.60
2023-02-09T08:33:43.416Z,61.40
2023-02-09T08:36:11.991Z,76.30
2023-02-09T08:38:40.129Z,69.00
2023-02-09T08:41:09.626Z,59.30
2023-02-09T08:43:37.555Z,64.40
2023-02-09T08:46:07.232Z,92.00
2023-02-09T08:48:36.969Z,54.70
2023-02-09T08:51:05.829Z,55.80
2023-02-09T08:53:34.544Z,71.50
2023-02-09T08:56:02.644Z,155.80
2023-02-09T08:58:32.090Z,117.00
2023-02-09T09:01:00.824Z,71.90
2023-02-09T09:03:31.653Z,66.30
2023-02-09T09:06:00.956Z,81.10
2023-02-09T09:08:30.149Z,88.00
2023-02-09T09:10:58.567Z,64.70
2023-02-09T09:13:26.773Z,56.40
2023-02-09T09:15:55.428Z,57.60
2023-02-09T09:18:25.269Z,55.20
2023-02-09T09:20:53.384Z,52.80
2023-02-09T09:23:21.654Z,53.60
2023-02-09T09:25:49.586Z,51.50
2023-02-09T09:28:17.555Z,75.10
2023-02-09T09:30:45.862Z,124.20
2023-02-09T09:33:14.423Z,129.10
2023-02-09T09:35:44.260Z,112.70
2023-02-09T09:38:12.288Z,94.60
2023-02-09T09:40:42.862Z,68.80
2023-02-09T09:43:37.600Z,80.90
2023-02-09T09:46:06.254Z,139.20
2023-02-09T09:48:54.254Z,108.30
2023-02-09T09:51:33.842Z,73.40
2023-02-09T09:54:03.540Z,67.20
2023-02-09T09:56:31.788Z,63.50
2023-02-09T09:59:00.162Z,62.10
2023-02-09T10:01:31.310Z,165.10
2023-02-09T10:04:02.227Z,160.80
2023-02-09T10:06:35.910Z,143.70
2023-02-09T10:09:06.357Z,106.40
2023-02-09T10:11:40.655Z,124.90
2023-02-09T10:14:09.037Z,82.20
2023-02-09T10:16:40.341Z,70.40
2023-02-09T10:19:22.474Z,57.40
2023-02-09T10:21:51.233Z,54.90
2023-02-09T10:24:23.399Z,45.40
2023-02-09T10:27:14.206Z,50.50
2023-02-09T10:29:42.419Z,39.90
2023-02-09T10:32:21.485Z,38.40
2023-02-09T10:34:53.802Z,37.80
2023-02-09T10:37:24.962Z,105.90
2023-02-09T10:39:59.655Z,82.10
2023-02-09T10:42:35.761Z,127.10
2023-02-09T10:45:07.206Z,87.70
2023-02-09T10:47:35.568Z,63.90
2023-02-09T10:50:14.089Z,47.30
2023-02-09T10:52:55.632Z,38.60
2023-02-09T10:55:39.227Z,32.70
2023-02-09T10:58:10.105Z,31.60
2023-02-09T11:01:06.279Z,33.20
2023-02-09T11:03:34.553Z,29.90
2023-02-09T11:06:14.280Z,34.40
2023-02-09T11:08:47.195Z,30.60
2023-02-09T11:11:22.261Z,29.00
2023-02-09T11:13:50.152Z,28.30
2023-02-09T11:16:29.486Z,28.40
2023-02-09T11:19:01.212Z,28.30
2023-02-09T11:21:39.436Z,28.30
2023-02-09T11:24:26.522Z,35.50
2023-02-09T11:26:58.491Z,38.40
2023-02-09T11:29:35.634Z,27.60
2023-02-09T11:32:11.997Z,30.70
2023-02-09T11:35:13.591Z,27.30
2023-02-09T11:37:58.653Z,52.80
2023-02-09T11:40:29.597Z,35.40
2023-02-09T11:43:35.327Z,55.30
2023-02-09T11:46:05.669Z,39.00
2023-02-09T11:48:40.804Z,30.70
2023-02-09T11:51:17.383Z,27.60
2023-02-09T11:54:00.946Z,56.70
2023-02-09T11:56:28.878Z,48.50
2023-02-09T11:59:03.935Z,32.80
2023-02-09T12:01:50.656Z,29.70
2023-02-09T12:04:22.730Z,31.40
2023-02-09T12:06:54.996Z,91.20
2023-02-09T12:09:29.577Z,62.20
2023-02-09T12:12:10.966Z,94.60
2023-02-09T12:14:54.821Z,57.00
2023-02-09T12:17:42.313Z,55.20
2023-02-09T12:20:40.260Z,36.90
2023-02-09T12:23:44.425Z,60.80
2023-02-09T12:26:16.465Z,40.30
2023-02-09T12:29:21.308Z,33.40
2023-02-09T12:32:03.418Z,29.20
2023-02-09T12:34:46.112Z,27.90
2023-02-09T12:37:14.170Z,28.10
2023-02-09T12:40:07.104Z,29.50
2023-02-09T12:42:43.983Z,28.00
2023-02-09T12:45:38.283Z,27.20
2023-02-09T12:48:09.175Z,28.80
2023-02-09T12:50:45.314Z,27.80
2023-02-09T12:53:24.411Z,26.40
2023-02-09T12:56:03.248Z,26.20
2023-02-09T12:59:05.945Z,23.00
2023-02-09T13:02:03.994Z,24.30
2023-02-09T13:04:37.365Z,24.80
2023-02-09T13:07:07.692Z,24.20
2023-02-09T13:09:37.498Z,20.80
2023-02-09T13:12:11.749Z,22.30
2023-02-09T13:14:39.910Z,22.60
2023-02-09T13:17:24.418Z,22.30
2023-02-09T13:20:04.731Z,22.80
2023-02-09T13:22:40.807Z,24.40
2023-02-09T13:25:32.400Z,22.20
2023-02-09T13:28:15.504Z,21.10
2023-02-09T13:30:43.610Z,21.90
2023-02-09T13:33:25.385Z,20.20
2023-02-09T13:36:23.935Z,19.80
2023-02-09T13:38:54.278Z,21.10
2023-02-09T13:41:31.005Z,21.40
2023-02-09T13:44:00.124Z,24.10
2023-02-09T13:46:34.118Z,21.20
2023-02-09T13:49:16.771Z,22.30
2023-02-09T13:51:44.746Z,20.10
2023-02-09T13:54:19.381Z,20.80
2023-02-09T13:56:47.277Z,21.70
2023-02-09T13:59:17.654Z,26.10
2023-02-09T14:01:48.629Z,22.30
2023-02-09T14:04:19.894Z,21.70
2023-02-09T14:06:53.460Z,20.40
2023-02-09T14:09:25.120Z,21.20
2023-02-09T14:14:26.894Z,30.50
2023-02-09T14:17:24.429Z,23.10
2023-02-09T14:19:54.030Z,20.80
2023-02-09T14:22:35.558Z,19.60
2023-02-09T14:25:13.824Z,19.50
2023-02-09T14:27:46.206Z,19.90
2023-02-09T14:30:39.049Z,19.80
2023-02-09T14:33:20.839Z,20.60
2023-02-09T14:35:54.138Z,20.30
2023-02-09T14:38:38.250Z,22.70
2023-02-09T14:41:22.084Z,22.00
2023-02-09T14:44:04.157Z,21.00
2023-02-09T14:46:47.525Z,19.00
2023-02-09T14:49:15.669Z,19.50
2023-02-09T14:51:44.355Z,18.90
2023-02-09T14:54:27.102Z,17.70
2023-02-09T14:56:58.713Z,17.30
2023-02-09T14:59:28.945Z,17.40
2023-02-09T15:01:58.593Z,17.70
2023-02-09T15:04:31.192Z,18.60
2023-02-09T15:07:02.546Z,19.40
2023-02-09T15:09:42.962Z,18.10
2023-02-09T15:12:27.247Z,18.10
2023-02-09T15:14:58.750Z,17.80
2023-02-09T15:17:29.161Z,17.40
2023-02-09T15:19:57.652Z,15.30
2023-02-09T15:22:25.568Z,14.80
2023-02-09T15:24:54.686Z,15.10
2023-02-09T15:27:51.314Z,16.50
2023-02-09T15:30:23.324Z,20.40
2023-02-09T15:32:51.740Z,27.90
2023-02-09T15:35:21.728Z,48.30
2023-02-09T15:37:52.668Z,55.10
2023-02-09T15:40:54.782Z,53.60
2023-02-09T15:43:42.288Z,50.50
2023-02-09T15:46:29.426Z,47.10
2023-02-09T15:48:57.402Z,44.20
2023-02-09T15:51:26.559Z,36.80
2023-02-09T15:53:56.359Z,33.10
2023-02-09T15:56:24.423Z,33.70
2023-02-09T15:58:53.381Z,32.70
2023-02-09T16:01:22.214Z,30.90
2023-02-09T16:03:50.218Z,30.30
2023-02-09T16:06:22.117Z,29.50
2023-02-09T16:08:52.610Z,30.80
2023-02-09T18:04:40.046Z,31.50
2023-02-09T18:07:09.323Z,30.60
2023-02-09T18:09:37.245Z,30.30
2023-02-09T18:12:32.743Z,34.80
2023-02-09T18:15:00.861Z,37.40
2023-02-09T18:17:29.436Z,42.20
2023-02-09T18:19:57.357Z,42.10
2023-02-09T18:22:27.438Z,41.50
2023-02-09T18:25:00.050Z,46.50
2023-02-09T18:27:28.276Z,45.70
2023-02-09T18:29:56.197Z,39.00
2023-02-09T18:32:24.334Z,41.50
2023-02-09T18:34:52.213Z,42.40
2023-02-09T18:37:20.084Z,41.00
2023-02-09T18:39:48.238Z,42.30
2023-02-09T18:42:16.385Z,41.90
2023-02-09T18:44:44.447Z,44.50
2023-02-09T18:47:12.518Z,44.80
2023-02-09T18:49:40.785Z,44.80
2023-02-09T18:52:10.228Z,43.70
2023-02-09T18:54:38.214Z,40.70
2023-02-09T18:57:06.239Z,45.60
2023-02-09T18:59:34.577Z,46.20
2023-02-09T19:02:02.785Z,48.80
2023-02-09T19:04:31.195Z,38.30
2023-02-09T19:07:06.396Z,46.90
2023-02-09T19:09:36.308Z,52.60
2023-02-09T19:12:04.223Z,51.50
2023-02-09T19:14:39.425Z,56.20
2023-02-09T19:17:10.008Z,61.20
2023-02-09T19:19:38.824Z,58.60
2023-02-09T19:22:06.777Z,57.80
2023-02-09T19:24:35.863Z,61.30
2023-02-09T19:27:06.673Z,58.50
2023-02-09T19:29:35.467Z,57.80
2023-02-09T19:32:04.265Z,58.60
2023-02-09T19:34:35.169Z,55.90
2023-02-09T19:37:05.403Z,64.60
2023-02-09T19:39:35.182Z,72.50
2023-02-09T19:42:03.022Z,75.10
2023-02-09T19:44:31.642Z,86.30
2023-02-09T19:46:59.645Z,86.50
2023-02-09T19:49:27.512Z,92.10
2023-02-09T19:51:55.361Z,91.70
2023-02-09T19:54:23.177Z,93.00
2023-02-09T19:56:51.817Z,85.70
2023-02-09T19:59:19.717Z,92.20
2023-02-09T20:01:47.596Z,96.40
2023-02-09T20:04:15.562Z,83.90
2023-02-09T20:06:43.575Z,69.90
2023-02-09T20:09:12.609Z,79.50
2023-02-09T20:11:40.568Z,76.80
2023-02-09T20:14:08.565Z,79.80
2023-02-09T20:16:36.608Z,81.70
2023-02-09T20:19:05.422Z,74.70
2023-02-09T20:21:35.561Z,73.20
2023-02-09T20:24:09.477Z,68.30
2023-02-09T20:26:39.135Z,62.00
2023-02-09T20:29:07.338Z,57.70
2023-02-09T20:31:36.842Z,58.80
2023-02-09T20:34:06.251Z,56.20
2023-02-09T20:36:35.809Z,60.00
2023-02-09T20:39:04.830Z,63.40
2023-02-09T20:41:33.038Z,59.80
2023-02-09T20:44:19.793Z,64.70
2023-02-09T20:46:57.022Z,63.00
2023-02-09T20:49:29.905Z,61.20
2023-02-09T20:51:58.130Z,60.20
2023-02-09T20:54:26.248Z,59.80
2023-02-09T20:56:54.444Z,62.00
2023-02-09T20:59:22.399Z,61.70
2023-02-09T21:01:50.557Z,67.10
2023-02-09T21:04:18.553Z,67.20
2023-02-09T21:06:46.759Z,51.60
2023-02-09T21:09:14.990Z,53.30
2023-02-09T21:11:47.601Z,48.70
2023-02-09T21:14:27.190Z,45.30
2023-02-09T21:16:56.268Z,46.90
2023-02-09T21:19:24.554Z,50.50
2023-02-09T21:21:52.520Z,51.90
2023-02-09T21:24:20.394Z,51.00
2023-02-09T21:26:48.261Z,44.40
2023-02-09T21:29:16.502Z,44.90
2023-02-09T21:31:44.909Z,44.70
2023-02-09T21:34:14.795Z,40.60
2023-02-09T21:36:42.743Z,41.00
2023-02-09T21:39:10.541Z,39.40
2023-02-09T21:41:57.163Z,40.80
2023-02-09T21:44:25.060Z,49.50
2023-02-09T21:46:54.082Z,59.00
2023-02-09T21:49:22.419Z,63.10
2023-02-09T21:51:50.349Z,57.10
2023-02-09T21:54:18.955Z,51.20
2023-02-09T21:56:46.831Z,57.50
2023-02-09T21:59:15.104Z,65.60
2023-02-09T22:01:43.549Z,67.80
2023-02-09T22:04:11.476Z,69.30
2023-02-09T22:06:41.710Z,60.70
2023-02-09T22:09:09.677Z,51.50
2023-02-09T22:11:38.681Z,46.60
2023-02-09T22:14:07.296Z,43.00
2023-02-09T22:16:35.672Z,45.90
2023-02-09T22:19:03.890Z,48.40
2023-02-09T22:21:31.727Z,47.00
2023-02-09T22:23:59.985Z,47.30
2023-02-09T22:26:27.875Z,46.00
2023-02-09T22:28:55.714Z,43.80
2023-02-09T22:31:23.492Z,46.40
2023-02-09T22:33:54.548Z,48.40
2023-02-09T22:38:51.757Z,45.60
2023-02-09T22:41:21.607Z,47.60
2023-02-09T22:44:06.131Z,49.40
2023-02-09T22:46:35.567Z,47.20
2023-02-09T22:49:05.934Z,45.50
2023-02-09T22:51:34.408Z,46.00
2023-02-09T22:54:02.567Z,48.60
2023-02-09T22:56:31.013Z,50.50
2023-02-09T22:58:59.873Z,54.30
2023-02-09T23:01:27.974Z,55.60
2023-02-09T23:03:56.062Z,56.10
2023-02-09T23:06:26.945Z,59.90
2023-02-09T23:08:56.018Z,64.20
2023-02-09T23:11:24.334Z,64.50
2023-02-09T23:14:03.792Z,63.60
2023-02-09T23:16:36.867Z,62.80
2023-02-09T23:19:06.362Z,66.80
2023-02-09T23:21:39.326Z,71.70
2023-02-09T23:24:07.645Z,66.10
2023-02-09T23:26:36.626Z,56.80
2023-02-09T23:29:06.754Z,54.10
2023-02-09T23:31:35.530Z,52.90
2023-02-09T23:34:03.530Z,57.90
2023-02-09T23:36:33.334Z,55.40
2023-02-09T23:39:03.316Z,55.30
2023-02-09T23:41:34.420Z,51.70
2023-02-09T23:44:04.410Z,50.30
2023-02-09T23:46:32.408Z,56.10
2023-02-09T23:49:00.871Z,58.80
2023-02-09T23:51:31.252Z,55.20
2023-02-09T23:54:00.584Z,55.60
2023-02-09T23:56:29.928Z,54.30
2023-02-09T23:58:57.788Z,56.10
